sensor_id;sensor_type;location;lat;lon;timestamp;pressure;altitude;pressure_sealevel;temperature;humidity
59650;BME280;46162;57.568;25.814;2023-08-31T00:01:43;99456.31;;;18.26;100.00
59650;BME280;46162;57.568;25.814;2023-08-31T00:04:11;99452.56;;;18.09;100.00
59650;BME280;46162;57.568;25.814;2023-08-31T00:06:42;99446.06;;;18.10;100.00
59650;BME280;46162;57.568;25.814;2023-08-31T00:09:12;99451.06;;;18.13;100.00
59650;BME280;46162;57.568;25.814;2023-08-31T00:11:40;99446.78;;;18.17;100.00
59650;BME280;46162;57.568;25.814;2023-08-31T00:14:09;99447.50;;;18.13;100.00
59650;BME280;46162;57.568;25.814;2023-08-31T00:16:38;99450.91;;;18.08;100.00
59650;BME280;46162;57.568;25.814;2023-08-31T00:19:08;99459.94;;;18.09;100.00
59650;BME280;46162;57.568;25.814;2023-08-31T00:21:36;99457.44;;;18.07;100.00
59650;BME280;46162;57.568;25.814;2023-08-31T00:24:05;99455.69;;;18.13;100.00
59650;BME280;46162;57.568;25.814;2023-08-31T00:26:35;99476.41;;;18.02;100.00
59650;BME280;46162;57.568;25.814;2023-08-31T00:29:06;99491.75;;;18.03;100.00
59650;BME280;46162;57.568;25.814;2023-08-31T00:31:37;99505.16;;;18.04;100.00
59650;BME280;46162;57.568;25.814;2023-08-31T00:34:07;99508.16;;;18.15;100.00
59650;BME280;46162;57.568;25.814;2023-08-31T00:36:43;99501.19;;;18.19;100.00
59650;BME280;46162;57.568;25.814;2023-08-31T00:39:12;99502.34;;;18.11;100.00
59650;BME280;46162;57.568;25.814;2023-08-31T00:41:41;99494.16;;;18.11;100.00
59650;BME280;46162;57.568;25.814;2023-08-31T00:44:12;99493.69;;;18.14;100.00
59650;BME280;46162;57.568;25.814;2023-08-31T00:46:40;99507.13;;;18.16;100.00
59650;BME280;46162;57.568;25.814;2023-08-31T00:49:12;99501.75;;;18.09;100.00
59650;BME280;46162;57.568;25.814;2023-08-31T00:51:43;99524.06;;;18.06;100.00
59650;BME280;46162;57.568;25.814;2023-08-31T00:54:16;99520.66;;;18.11;100.00
59650;BME280;46162;57.568;25.814;2023-08-31T00:56:45;99530.56;;;18.05;100.00
59650;BME280;46162;57.568;25.814;2023-08-31T00:59:14;99539.75;;;18.11;100.00
59650;BME280;46162;57.568;25.814;2023-08-31T01:01:50;99540.59;;;18.11;100.00
59650;BME280;46162;57.568;25.814;2023-08-31T01:04:32;99533.47;;;18.10;100.00
59650;BME280;46162;57.568;25.814;2023-08-31T01:07:07;99527.84;;;18.05;100.00
59650;BME280;46162;57.568;25.814;2023-08-31T01:09:44;99525.72;;;18.07;100.00
59650;BME280;46162;57.568;25.814;2023-08-31T01:12:22;99508.28;;;18.08;100.00
59650;BME280;46162;57.568;25.814;2023-08-31T01:15:05;99497.06;;;17.98;100.00
59650;BME280;46162;57.568;25.814;2023-08-31T01:17:39;99492.97;;;17.89;100.00
59650;BME280;46162;57.568;25.814;2023-08-31T01:20:15;99501.78;;;17.91;100.00
59650;BME280;46162;57.568;25.814;2023-08-31T01:22:51;99498.50;;;17.82;100.00
59650;BME280;46162;57.568;25.814;2023-08-31T01:25:25;99501.47;;;17.80;100.00
59650;BME280;46162;57.568;25.814;2023-08-31T01:27:55;99504.94;;;17.69;100.00
59650;BME280;46162;57.568;25.814;2023-08-31T01:30:24;99514.91;;;17.75;100.00
59650;BME280;46162;57.568;25.814;2023-08-31T01:32:53;99514.91;;;17.75;100.00
59650;BME280;46162;57.568;25.814;2023-08-31T01:35:22;99518.94;;;17.73;100.00
59650;BME280;46162;57.568;25.814;2023-08-31T01:37:53;99521.25;;;17.76;100.00
59650;BME280;46162;57.568;25.814;2023-08-31T01:40:31;99528.13;;;17.78;100.00
59650;BME280;46162;57.568;25.814;2023-08-31T01:43:03;99513.19;;;17.99;100.00
59650;BME280;46162;57.568;25.814;2023-08-31T01:45:33;99511.47;;;17.87;100.00
59650;BME280;46162;57.568;25.814;2023-08-31T01:48:05;99506.63;;;17.89;100.00
59650;BME280;46162;57.568;25.814;2023-08-31T01:50:36;99489.50;;;17.81;100.00
59650;BME280;46162;57.568;25.814;2023-08-31T01:53:05;99491.81;;;17.78;100.00
59650;BME280;46162;57.568;25.814;2023-08-31T01:55:36;99485.69;;;17.82;100.00
59650;BME280;46162;57.568;25.814;2023-08-31T01:58:05;99471.75;;;17.91;100.00
59650;BME280;46162;57.568;25.814;2023-08-31T02:00:34;99468.88;;;17.86;100.00
59650;BME280;46162;57.568;25.814;2023-08-31T02:03:06;99464.44;;;17.84;100.00
59650;BME280;46162;57.568;25.814;2023-08-31T02:05:35;99461.19;;;17.76;100.00
59650;BME280;46162;57.568;25.814;2023-08-31T02:08:04;99455.47;;;17.77;100.00
59650;BME280;46162;57.568;25.814;2023-08-31T02:10:32;99450.59;;;17.86;100.00
59650;BME280;46162;57.568;25.814;2023-08-31T02:13:03;99447.03;;;17.86;100.00
59650;BME280;46162;57.568;25.814;2023-08-31T02:15:31;99440.50;;;17.68;100.00
59650;BME280;46162;57.568;25.814;2023-08-31T02:18:00;99442.47;;;17.61;100.00
59650;BME280;46162;57.568;25.814;2023-08-31T02:20:29;99448.22;;;17.71;100.00
59650;BME280;46162;57.568;25.814;2023-08-31T02:22:58;99459.13;;;17.71;100.00
59650;BME280;46162;57.568;25.814;2023-08-31T02:25:27;99467.03;;;17.61;100.00
59650;BME280;46162;57.568;25.814;2023-08-31T02:27:56;99471.25;;;17.57;100.00
59650;BME280;46162;57.568;25.814;2023-08-31T02:30:26;99485.72;;;17.57;100.00
59650;BME280;46162;57.568;25.814;2023-08-31T02:32:56;99478.00;;;17.73;100.00
59650;BME280;46162;57.568;25.814;2023-08-31T02:35:25;99478.47;;;17.70;100.00
59650;BME280;46162;57.568;25.814;2023-08-31T02:37:54;99472.31;;;17.74;100.00
59650;BME280;46162;57.568;25.814;2023-08-31T02:40:22;99467.94;;;17.73;100.00
59650;BME280;46162;57.568;25.814;2023-08-31T02:42:51;99475.00;;;17.81;100.00
59650;BME280;46162;57.568;25.814;2023-08-31T02:45:20;99464.13;;;17.74;100.00
59650;BME280;46162;57.568;25.814;2023-08-31T02:47:52;99457.00;;;17.73;100.00
59650;BME280;46162;57.568;25.814;2023-08-31T02:50:20;99454.97;;;17.87;100.00
59650;BME280;46162;57.568;25.814;2023-08-31T02:52:49;99456.50;;;17.83;100.00
59650;BME280;46162;57.568;25.814;2023-08-31T02:55:18;99448.31;;;17.83;100.00
59650;BME280;46162;57.568;25.814;2023-08-31T02:57:46;99451.47;;;17.80;100.00
59650;BME280;46162;57.568;25.814;2023-08-31T03:00:15;99448.56;;;17.75;100.00
59650;BME280;46162;57.568;25.814;2023-08-31T03:02:48;99458.44;;;17.76;100.00
59650;BME280;46162;57.568;25.814;2023-08-31T03:05:21;99458.19;;;17.77;100.00
59650;BME280;46162;57.568;25.814;2023-08-31T03:07:50;99462.00;;;17.76;100.00
59650;BME280;46162;57.568;25.814;2023-08-31T03:10:20;99458.53;;;17.69;100.00
59650;BME280;46162;57.568;25.814;2023-08-31T03:12:50;99454.00;;;17.63;100.00
59650;BME280;46162;57.568;25.814;2023-08-31T03:15:18;99458.31;;;17.71;100.00
59650;BME280;46162;57.568;25.814;2023-08-31T03:17:47;99467.53;;;17.70;100.00
59650;BME280;46162;57.568;25.814;2023-08-31T03:20:16;99468.00;;;17.67;100.00
59650;BME280;46162;57.568;25.814;2023-08-31T03:22:46;99463.84;;;17.82;100.00
59650;BME280;46162;57.568;25.814;2023-08-31T03:25:15;99459.25;;;17.83;100.00
59650;BME280;46162;57.568;25.814;2023-08-31T03:27:44;99458.38;;;17.82;100.00
59650;BME280;46162;57.568;25.814;2023-08-31T03:30:13;99449.03;;;17.90;100.00
59650;BME280;46162;57.568;25.814;2023-08-31T03:32:42;99451.03;;;17.83;100.00
59650;BME280;46162;57.568;25.814;2023-08-31T03:35:11;99455.91;;;17.81;100.00
59650;BME280;46162;57.568;25.814;2023-08-31T03:37:40;99450.59;;;17.86;100.00
59650;BME280;46162;57.568;25.814;2023-08-31T03:40:10;99450.94;;;17.90;100.00
59650;BME280;46162;57.568;25.814;2023-08-31T03:42:45;99448.31;;;17.83;100.00
59650;BME280;46162;57.568;25.814;2023-08-31T03:45:14;99455.22;;;17.86;100.00
59650;BME280;46162;57.568;25.814;2023-08-31T03:47:43;99454.75;;;17.89;100.00
59650;BME280;46162;57.568;25.814;2023-08-31T03:50:13;99452.47;;;17.86;100.00
59650;BME280;46162;57.568;25.814;2023-08-31T03:52:41;99454.81;;;17.82;100.00
59650;BME280;46162;57.568;25.814;2023-08-31T03:55:11;99463.97;;;17.88;100.00
59650;BME280;46162;57.568;25.814;2023-08-31T03:57:40;99445.25;;;17.91;100.00
59650;BME280;46162;57.568;25.814;2023-08-31T04:00:15;99442.59;;;17.84;100.00
59650;BME280;46162;57.568;25.814;2023-08-31T04:02:44;99445.25;;;17.91;100.00
59650;BME280;46162;57.568;25.814;2023-08-31T04:05:16;99443.34;;;17.92;100.00
59650;BME280;46162;57.568;25.814;2023-08-31T04:07:45;99451.22;;;18.00;100.00
59650;BME280;46162;57.568;25.814;2023-08-31T04:10:15;99446.69;;;17.94;100.00
59650;BME280;46162;57.568;25.814;2023-08-31T04:12:45;99442.44;;;17.98;100.00
59650;BME280;46162;57.568;25.814;2023-08-31T04:15:13;99443.34;;;17.92;100.00
59650;BME280;46162;57.568;25.814;2023-08-31T04:17:42;99457.00;;;17.92;100.00
59650;BME280;46162;57.568;25.814;2023-08-31T04:20:11;99460.56;;;17.92;100.00
59650;BME280;46162;57.568;25.814;2023-08-31T04:22:40;99456.41;;;17.90;100.00
59650;BME280;46162;57.568;25.814;2023-08-31T04:25:09;99454.06;;;17.93;100.00
59650;BME280;46162;57.568;25.814;2023-08-31T04:27:39;99453.38;;;17.98;100.00
59650;BME280;46162;57.568;25.814;2023-08-31T04:30:08;99455.09;;;17.92;100.00
59650;BME280;46162;57.568;25.814;2023-08-31T04:32:37;99459.06;;;17.96;100.00
59650;BME280;46162;57.568;25.814;2023-08-31T04:35:07;99446.69;;;17.94;100.00
59650;BME280;46162;57.568;25.814;2023-08-31T04:37:36;99456.09;;;17.98;100.00
59650;BME280;46162;57.568;25.814;2023-08-31T04:40:06;99449.94;;;18.02;100.00
59650;BME280;46162;57.568;25.814;2023-08-31T04:42:36;99445.19;;;17.98;100.00
59650;BME280;46162;57.568;25.814;2023-08-31T04:45:07;99448.50;;;18.00;100.00
59650;BME280;46162;57.568;25.814;2023-08-31T04:47:36;99458.09;;;17.91;100.00
59650;BME280;46162;57.568;25.814;2023-08-31T04:50:06;99459.88;;;17.97;100.00
59650;BME280;46162;57.568;25.814;2023-08-31T04:52:35;99448.28;;;18.01;100.00
59650;BME280;46162;57.568;25.814;2023-08-31T04:55:06;99446.38;;;18.02;100.00
59650;BME280;46162;57.568;25.814;2023-08-31T04:57:35;99443.59;;;18.20;100.00
59650;BME280;46162;57.568;25.814;2023-08-31T05:00:07;99433.25;;;18.11;100.00
59650;BME280;46162;57.568;25.814;2023-08-31T05:02:36;99434.56;;;18.20;100.00
59650;BME280;46162;57.568;25.814;2023-08-31T05:05:06;99429.34;;;18.18;100.00
59650;BME280;46162;57.568;25.814;2023-08-31T05:07:35;99418.78;;;18.22;100.00
59650;BME280;46162;57.568;25.814;2023-08-31T05:10:04;99421.88;;;18.25;100.00
59650;BME280;46162;57.568;25.814;2023-08-31T05:12:33;99419.94;;;18.14;100.00
59650;BME280;46162;57.568;25.814;2023-08-31T05:15:02;99424.47;;;18.20;100.00
59650;BME280;46162;57.568;25.814;2023-08-31T05:17:33;99414.84;;;18.18;100.00
59650;BME280;46162;57.568;25.814;2023-08-31T05:20:02;99420.81;;;18.26;100.00
59650;BME280;46162;57.568;25.814;2023-08-31T05:22:32;99429.38;;;18.30;100.00
59650;BME280;46162;57.568;25.814;2023-08-31T05:25:02;99428.19;;;18.26;100.00
59650;BME280;46162;57.568;25.814;2023-08-31T05:27:31;99432.69;;;18.20;100.00
59650;BME280;46162;57.568;25.814;2023-08-31T05:30:00;99430.69;;;18.27;100.00
59650;BME280;46162;57.568;25.814;2023-08-31T05:32:29;99435.53;;;18.25;100.00
59650;BME280;46162;57.568;25.814;2023-08-31T05:34:59;99433.41;;;18.27;100.00
59650;BME280;46162;57.568;25.814;2023-08-31T05:37:32;99436.88;;;18.35;100.00
59650;BME280;46162;57.568;25.814;2023-08-31T05:40:03;99438.66;;;18.41;100.00
59650;BME280;46162;57.568;25.814;2023-08-31T05:42:37;99442.94;;;18.37;100.00
59650;BME280;46162;57.568;25.814;2023-08-31T05:45:06;99440.53;;;18.29;100.00
59650;BME280;46162;57.568;25.814;2023-08-31T05:47:35;99444.41;;;18.51;100.00
59650;BME280;46162;57.568;25.814;2023-08-31T05:50:06;99436.94;;;18.58;100.00
59650;BME280;46162;57.568;25.814;2023-08-31T05:52:35;99443.78;;;18.49;100.00
59650;BME280;46162;57.568;25.814;2023-08-31T05:55:05;99446.03;;;18.40;100.00
59650;BME280;46162;57.568;25.814;2023-08-31T05:57:34;99439.53;;;18.53;100.00
59650;BME280;46162;57.568;25.814;2023-08-31T06:00:03;99452.97;;;18.55;100.00
59650;BME280;46162;57.568;25.814;2023-08-31T06:02:38;99450.69;;;18.52;100.00
59650;BME280;46162;57.568;25.814;2023-08-31T06:05:09;99448.00;;;18.63;100.00
59650;BME280;46162;57.568;25.814;2023-08-31T06:08:05;99456.41;;;18.62;100.00
59650;BME280;46162;57.568;25.814;2023-08-31T06:10:34;99451.94;;;18.67;100.00
59650;BME280;46162;57.568;25.814;2023-08-31T06:13:05;99452.81;;;18.80;100.00
59650;BME280;46162;57.568;25.814;2023-08-31T06:15:34;99449.59;;;18.83;100.00
59650;BME280;46162;57.568;25.814;2023-08-31T06:18:03;99457.69;;;18.78;100.00
59650;BME280;46162;57.568;25.814;2023-08-31T06:20:33;99450.69;;;18.82;100.00
59650;BME280;46162;57.568;25.814;2023-08-31T06:23:02;99458.28;;;18.80;100.00
59650;BME280;46162;57.568;25.814;2023-08-31T06:25:30;99462.19;;;18.84;100.00
59650;BME280;46162;57.568;25.814;2023-08-31T06:28:00;99456.44;;;18.74;100.00
59650;BME280;46162;57.568;25.814;2023-08-31T06:30:29;99461.00;;;18.80;100.00
59650;BME280;46162;57.568;25.814;2023-08-31T06:32:58;99464.41;;;18.75;100.00
59650;BME280;46162;57.568;25.814;2023-08-31T06:35:26;99473.81;;;18.67;100.00
59650;BME280;46162;57.568;25.814;2023-08-31T06:37:57;99463.44;;;18.58;100.00
59650;BME280;46162;57.568;25.814;2023-08-31T06:40:25;99465.69;;;18.61;100.00
59650;BME280;46162;57.568;25.814;2023-08-31T06:42:54;99469.38;;;18.55;100.00
59650;BME280;46162;57.568;25.814;2023-08-31T06:45:22;99465.22;;;18.52;100.00
59650;BME280;46162;57.568;25.814;2023-08-31T06:47:51;99464.78;;;18.67;100.00
59650;BME280;46162;57.568;25.814;2023-08-31T06:50:20;99469.25;;;18.61;100.00
59650;BME280;46162;57.568;25.814;2023-08-31T06:52:49;99468.47;;;18.73;100.00
59650;BME280;46162;57.568;25.814;2023-08-31T06:55:19;99472.84;;;18.74;100.00
59650;BME280;46162;57.568;25.814;2023-08-31T06:57:47;99461.00;;;18.80;100.00
59650;BME280;46162;57.568;25.814;2023-08-31T07:00:17;99469.34;;;18.85;100.00
59650;BME280;46162;57.568;25.814;2023-08-31T07:02:45;99460.66;;;18.88;100.00
59650;BME280;46162;57.568;25.814;2023-08-31T07:05:14;99469.22;;;19.03;100.00
59650;BME280;46162;57.568;25.814;2023-08-31T07:07:43;99464.00;;;19.02;100.00
59650;BME280;46162;57.568;25.814;2023-08-31T07:10:13;99464.94;;;18.96;100.00
59650;BME280;46162;57.568;25.814;2023-08-31T07:12:43;99469.81;;;18.94;100.00
59650;BME280;46162;57.568;25.814;2023-08-31T07:15:12;99467.22;;;18.87;100.00
59650;BME280;46162;57.568;25.814;2023-08-31T07:17:41;99476.13;;;18.94;100.00
59650;BME280;46162;57.568;25.814;2023-08-31T07:20:10;99475.53;;;18.92;100.00
59650;BME280;46162;57.568;25.814;2023-08-31T07:22:39;99478.16;;;18.87;100.00
59650;BME280;46162;57.568;25.814;2023-08-31T07:25:08;99483.97;;;18.90;100.00
59650;BME280;46162;57.568;25.814;2023-08-31T07:27:37;99496.94;;;18.95;100.00
59650;BME280;46162;57.568;25.814;2023-08-31T07:30:08;99503.97;;;19.03;100.00
59650;BME280;46162;57.568;25.814;2023-08-31T07:32:37;99497.53;;;18.97;100.00
59650;BME280;46162;57.568;25.814;2023-08-31T07:35:06;99496.47;;;18.98;100.00
59650;BME280;46162;57.568;25.814;2023-08-31T07:37:35;99506.72;;;19.15;100.00
59650;BME280;46162;57.568;25.814;2023-08-31T07:40:05;99499.34;;;19.15;100.00
59650;BME280;46162;57.568;25.814;2023-08-31T07:42:37;99504.91;;;19.08;100.00
59650;BME280;46162;57.568;25.814;2023-08-31T07:45:08;99500.03;;;19.10;100.00
59650;BME280;46162;57.568;25.814;2023-08-31T07:47:37;99502.31;;;19.25;100.00
59650;BME280;46162;57.568;25.814;2023-08-31T07:50:07;99503.72;;;19.28;100.00
59650;BME280;46162;57.568;25.814;2023-08-31T07:52:35;99509.31;;;19.33;100.00
59650;BME280;46162;57.568;25.814;2023-08-31T07:55:05;99507.78;;;19.37;100.00
59650;BME280;46162;57.568;25.814;2023-08-31T07:57:34;99501.94;;;19.45;100.00
59650;BME280;46162;57.568;25.814;2023-08-31T08:00:03;99509.44;;;19.50;100.00
59650;BME280;46162;57.568;25.814;2023-08-31T08:02:39;99508.13;;;19.52;100.00
59650;BME280;46162;57.568;25.814;2023-08-31T08:05:08;99515.63;;;19.45;100.00
59650;BME280;46162;57.568;25.814;2023-08-31T08:07:37;99530.41;;;19.44;100.00
59650;BME280;46162;57.568;25.814;2023-08-31T08:10:07;99519.44;;;19.32;100.00
59650;BME280;46162;57.568;25.814;2023-08-31T08:12:40;99526.81;;;19.32;100.00
59650;BME280;46162;57.568;25.814;2023-08-31T08:15:11;99529.66;;;19.25;100.00
59650;BME280;46162;57.568;25.814;2023-08-31T08:17:41;99526.00;;;19.20;100.00
59650;BME280;46162;57.568;25.814;2023-08-31T08:20:11;99517.41;;;19.04;100.00
59650;BME280;46162;57.568;25.814;2023-08-31T08:22:39;99525.84;;;19.03;100.00
59650;BME280;46162;57.568;25.814;2023-08-31T08:25:08;99520.03;;;18.99;100.00
59650;BME280;46162;57.568;25.814;2023-08-31T08:27:37;99528.34;;;19.04;100.00
59650;BME280;46162;57.568;25.814;2023-08-31T08:30:07;99524.31;;;19.07;100.00
59650;BME280;46162;57.568;25.814;2023-08-31T08:32:36;99536.31;;;19.18;100.00
59650;BME280;46162;57.568;25.814;2023-08-31T08:35:07;99543.22;;;19.20;100.00
59650;BME280;46162;57.568;25.814;2023-08-31T08:37:36;99535.84;;;19.21;100.00
59650;BME280;46162;57.568;25.814;2023-08-31T08:40:06;99529.78;;;19.19;100.00
59650;BME280;46162;57.568;25.814;2023-08-31T08:42:39;99548.69;;;19.08;100.00
59650;BME280;46162;57.568;25.814;2023-08-31T08:45:15;99551.28;;;19.03;100.00
59650;BME280;46162;57.568;25.814;2023-08-31T08:47:44;99555.47;;;18.94;100.00
59650;BME280;46162;57.568;25.814;2023-08-31T08:50:16;99551.16;;;18.98;100.00
59650;BME280;46162;57.568;25.814;2023-08-31T08:52:45;99572.56;;;19.01;100.00
59650;BME280;46162;57.568;25.814;2023-08-31T08:55:15;99581.59;;;18.90;100.00
59650;BME280;46162;57.568;25.814;2023-08-31T08:57:43;99581.47;;;18.85;100.00
59650;BME280;46162;57.568;25.814;2023-08-31T09:00:13;99585.38;;;18.89;100.00
59650;BME280;46162;57.568;25.814;2023-08-31T09:02:42;99606.81;;;18.74;100.00
59650;BME280;46162;57.568;25.814;2023-08-31T09:05:12;99602.50;;;18.66;100.00
59650;BME280;46162;57.568;25.814;2023-08-31T09:08:04;99613.91;;;18.63;100.00
59650;BME280;46162;57.568;25.814;2023-08-31T09:10:35;99620.44;;;18.62;100.00
59650;BME280;46162;57.568;25.814;2023-08-31T09:13:08;99630.53;;;18.61;100.00
59650;BME280;46162;57.568;25.814;2023-08-31T09:15:39;99636.63;;;18.63;100.00
59650;BME280;46162;57.568;25.814;2023-08-31T09:18:13;99637.91;;;18.61;100.00
59650;BME280;46162;57.568;25.814;2023-08-31T09:20:43;99652.66;;;18.60;100.00
59650;BME280;46162;57.568;25.814;2023-08-31T09:23:14;99663.19;;;18.56;100.00
59650;BME280;46162;57.568;25.814;2023-08-31T09:25:44;99670.78;;;18.54;100.00
59650;BME280;46162;57.568;25.814;2023-08-31T09:28:13;99678.84;;;18.49;100.00
59650;BME280;46162;57.568;25.814;2023-08-31T09:30:42;99676.97;;;18.50;100.00
59650;BME280;46162;57.568;25.814;2023-08-31T09:33:15;99688.13;;;18.48;100.00
59650;BME280;46162;57.568;25.814;2023-08-31T09:35:48;99694.03;;;18.45;100.00
59650;BME280;46162;57.568;25.814;2023-08-31T09:38:19;99694.25;;;18.43;100.00
59650;BME280;46162;57.568;25.814;2023-08-31T09:40:48;99700.41;;;18.39;100.00
59650;BME280;46162;57.568;25.814;2023-08-31T09:43:20;99701.06;;;18.34;100.00
59650;BME280;46162;57.568;25.814;2023-08-31T09:45:50;99693.97;;;18.33;100.00
59650;BME280;46162;57.568;25.814;2023-08-31T09:48:21;99710.72;;;18.37;100.00
59650;BME280;46162;57.568;25.814;2023-08-31T09:50:51;99716.66;;;18.34;100.00
59650;BME280;46162;57.568;25.814;2023-08-31T09:53:24;99715.59;;;18.35;100.00
59650;BME280;46162;57.568;25.814;2023-08-31T09:55:56;99717.72;;;18.33;100.00
59650;BME280;46162;57.568;25.814;2023-08-31T09:58:25;99734.44;;;18.43;100.00
59650;BME280;46162;57.568;25.814;2023-08-31T10:00:53;99730.63;;;18.44;100.00
59650;BME280;46162;57.568;25.814;2023-08-31T10:03:23;99747.25;;;18.42;100.00
59650;BME280;46162;57.568;25.814;2023-08-31T10:05:54;99752.31;;;18.39;100.00
59650;BME280;46162;57.568;25.814;2023-08-31T10:08:26;99757.63;;;18.34;100.00
59650;BME280;46162;57.568;25.814;2023-08-31T10:10:59;99758.09;;;18.31;100.00
59650;BME280;46162;57.568;25.814;2023-08-31T10:13:31;99758.09;;;18.31;100.00
59650;BME280;46162;57.568;25.814;2023-08-31T10:16:04;99769.63;;;18.33;100.00
59650;BME280;46162;57.568;25.814;2023-08-31T10:18:34;99754.44;;;18.37;100.00
59650;BME280;46162;57.568;25.814;2023-08-31T10:21:04;99754.38;;;18.43;100.00
59650;BME280;46162;57.568;25.814;2023-08-31T10:23:34;99759.09;;;18.73;100.00
59650;BME280;46162;57.568;25.814;2023-08-31T10:26:05;99760.75;;;18.74;100.00
59650;BME280;46162;57.568;25.814;2023-08-31T10:28:41;99766.94;;;18.69;100.00
59650;BME280;46162;57.568;25.814;2023-08-31T10:31:16;99775.00;;;18.64;100.00
59650;BME280;46162;57.568;25.814;2023-08-31T10:33:45;99771.78;;;18.67;100.00
59650;BME280;46162;57.568;25.814;2023-08-31T10:36:15;99779.16;;;18.67;100.00
59650;BME280;46162;57.568;25.814;2023-08-31T10:39:00;99777.94;;;18.63;100.00
59650;BME280;46162;57.568;25.814;2023-08-31T10:41:32;99791.91;;;18.55;100.00
59650;BME280;46162;57.568;25.814;2023-08-31T10:44:19;99791.75;;;18.50;100.00
59650;BME280;46162;57.568;25.814;2023-08-31T10:46:49;99791.75;;;18.50;100.00
59650;BME280;46162;57.568;25.814;2023-08-31T10:49:19;99784.53;;;18.55;100.00
59650;BME280;46162;57.568;25.814;2023-08-31T10:51:49;99778.84;;;18.57;100.00
59650;BME280;46162;57.568;25.814;2023-08-31T10:54:23;99792.75;;;18.74;100.00
59650;BME280;46162;57.568;25.814;2023-08-31T10:57:10;99794.00;;;18.78;100.00
59650;BME280;46162;57.568;25.814;2023-08-31T10:59:42;99801.53;;;18.82;100.00
59650;BME280;46162;57.568;25.814;2023-08-31T11:04:56;99811.94;;;18.92;100.00
59650;BME280;46162;57.568;25.814;2023-08-31T11:07:27;99815.50;;;18.93;100.00
59650;BME280;46162;57.568;25.814;2023-08-31T11:10:12;99818.59;;;18.96;100.00
59650;BME280;46162;57.568;25.814;2023-08-31T11:12:42;99828.34;;;19.10;100.00
59650;BME280;46162;57.568;25.814;2023-08-31T11:15:13;99834.50;;;19.24;100.00
59650;BME280;46162;57.568;25.814;2023-08-31T11:17:42;99843.47;;;19.13;100.00
59650;BME280;46162;57.568;25.814;2023-08-31T11:20:14;99848.84;;;19.20;100.00
59650;BME280;46162;57.568;25.814;2023-08-31T11:22:45;99852.75;;;19.12;100.00
59650;BME280;46162;57.568;25.814;2023-08-31T11:25:18;99851.44;;;19.15;100.00
59650;BME280;46162;57.568;25.814;2023-08-31T11:27:55;99851.19;;;19.16;100.00
59650;BME280;46162;57.568;25.814;2023-08-31T11:30:25;99858.84;;;19.14;100.00
59650;BME280;46162;57.568;25.814;2023-08-31T11:32:55;99858.59;;;19.16;100.00
59650;BME280;46162;57.568;25.814;2023-08-31T11:35:24;99861.47;;;19.21;100.00
59650;BME280;46162;57.568;25.814;2023-08-31T11:38:02;99864.81;;;19.23;100.00
59650;BME280;46162;57.568;25.814;2023-08-31T11:40:32;99868.38;;;19.23;100.00
59650;BME280;46162;57.568;25.814;2023-08-31T11:43:02;99863.22;;;19.15;100.00
59650;BME280;46162;57.568;25.814;2023-08-31T11:45:33;99870.00;;;19.12;100.00
59650;BME280;46162;57.568;25.814;2023-08-31T11:48:04;99857.75;;;19.15;100.00
59650;BME280;46162;57.568;25.814;2023-08-31T11:50:33;99853.56;;;19.12;100.00
59650;BME280;46162;57.568;25.814;2023-08-31T11:53:02;99855.09;;;19.27;100.00
59650;BME280;46162;57.568;25.814;2023-08-31T11:55:33;99854.47;;;19.25;100.00
59650;BME280;46162;57.568;25.814;2023-08-31T11:58:02;99852.56;;;19.25;100.00
59650;BME280;46162;57.568;25.814;2023-08-31T12:00:31;99851.88;;;19.30;100.00
59650;BME280;46162;57.568;25.814;2023-08-31T12:03:01;99857.84;;;19.27;100.00
59650;BME280;46162;57.568;25.814;2023-08-31T12:05:45;99865.56;;;19.30;100.00
59650;BME280;46162;57.568;25.814;2023-08-31T12:08:14;99862.50;;;19.38;100.00
59650;BME280;46162;57.568;25.814;2023-08-31T12:10:46;99857.44;;;19.42;100.00
59650;BME280;46162;57.568;25.814;2023-08-31T12:13:14;99857.44;;;19.42;100.00
59650;BME280;46162;57.568;25.814;2023-08-31T12:15:43;99854.16;;;19.51;100.00
59650;BME280;46162;57.568;25.814;2023-08-31T12:18:13;99859.50;;;19.46;100.00
59650;BME280;46162;57.568;25.814;2023-08-31T12:20:45;99854.59;;;19.48;100.00
59650;BME280;46162;57.568;25.814;2023-08-31T12:23:14;99861.16;;;19.47;100.00
59650;BME280;46162;57.568;25.814;2023-08-31T12:25:48;99847.59;;;19.52;100.00
59650;BME280;46162;57.568;25.814;2023-08-31T12:28:18;99854.00;;;19.46;100.00
59650;BME280;46162;57.568;25.814;2023-08-31T12:30:48;99849.72;;;19.50;100.00
59650;BME280;46162;57.568;25.814;2023-08-31T12:33:18;99858.53;;;19.52;100.00
59650;BME280;46162;57.568;25.814;2023-08-31T12:35:47;99864.41;;;19.56;100.00
59650;BME280;46162;57.568;25.814;2023-08-31T12:38:16;99870.03;;;19.61;100.00
59650;BME280;46162;57.568;25.814;2023-08-31T12:40:46;99871.00;;;19.67;100.00
59650;BME280;46162;57.568;25.814;2023-08-31T12:43:16;99869.66;;;19.76;100.00
59650;BME280;46162;57.568;25.814;2023-08-31T12:45:45;99882.03;;;19.79;100.00
59650;BME280;46162;57.568;25.814;2023-08-31T12:48:14;99881.78;;;19.80;100.00
59650;BME280;46162;57.568;25.814;2023-08-31T12:50:42;99875.47;;;19.80;100.00
59650;BME280;46162;57.568;25.814;2023-08-31T12:53:11;99887.06;;;19.82;100.00
59650;BME280;46162;57.568;25.814;2023-08-31T12:55:40;99884.44;;;19.87;100.00
59650;BME280;46162;57.568;25.814;2023-08-31T12:58:09;99886.72;;;19.90;100.00
59650;BME280;46162;57.568;25.814;2023-08-31T13:00:39;99892.47;;;20.00;100.00